Time;durP1;ratioP1;P1;durP2;ratioP2;P2;SDS_P1;SDS_P2;PMS_P1;PMS_P2;Temp;Humidity;BMP_temperature;BMP_pressure;BME280_temperature;BME280_humidity;BME280_pressure;Samples;Min_cycle;Max_cycle;Signal;HPM_P1;HPM_P2
2022/04/30 00:01:26;;;;;;;;;;;;;;;4.65;85.46;100347.06;6304688;22;19989;-83
2022/04/30 00:03:51;;;;;;;;;;;;;;;4.64;85.77;100346.22;6305134;22;20407;-85
2022/04/30 00:06:17;;;;;;;;;;;;;;;4.87;88.19;100339.84;6306193;22;19989;-84
2022/04/30 00:08:42;;;;;;;;;;;;;;;5.00;90.12;100340.59;6304527;22;19919;-84
2022/04/30 00:11:07;;;;;;;;;;;;;;;4.94;90.79;100336.25;6305105;22;19934;-83
2022/04/30 00:13:33;;;;;;;;;;;;;;;4.87;91.13;100331.97;6304230;22;19933;-83
2022/04/30 00:15:59;;;;;;;;;;;;;;;4.73;91.14;100325.09;6304108;22;20315;-83
2022/04/30 00:18:25;;;;;;;;;;;;;;;4.74;91.06;100318.13;6303517;22;19986;-83
2022/04/30 00:20:50;;;;;;;;;;;;;;;4.62;91.15;100318.22;6306057;22;19949;-82
2022/04/30 00:23:21;;;;;;;;;;;;;;;4.62;91.33;100315.59;6304898;22;19915;-82
2022/04/30 00:25:51;;;;;;;;;;;;;;;4.58;91.22;100314.78;6304970;22;19907;-82
2022/04/30 00:28:17;;;;;;;;;;;;;;;4.52;91.19;100307.81;6304920;22;20327;-82
2022/04/30 00:30:44;;;;;;;;;;;;;;;4.63;90.88;100312.09;6304934;22;19938;-83
2022/04/30 00:33:10;;;;;;;;;;;;;;;4.51;90.69;100313.94;6304532;22;20293;-83
2022/04/30 00:35:36;;;;;;;;;;;;;;;4.50;90.88;100317.47;6306108;22;19919;-83
2022/04/30 03:29:28;;;;;;;;;;;;;;;7.77;100.00;100226.91;6331846;22;20356;-83
2022/04/30 03:31:54;;;;;;;;;;;;;;;7.77;100.00;100225.19;6337828;22;19934;-82
2022/04/30 03:34:19;;;;;;;;;;;;;;;7.78;100.00;100223.41;6337952;22;20236;-83
2022/04/30 03:36:44;;;;;;;;;;;;;;;7.78;100.00;100224.25;6338148;22;19927;-85
2022/04/30 03:39:10;;;;;;;;;;;;;;;7.79;100.00;100223.34;6310687;22;19993;-84
2022/04/30 03:41:36;;;;;;;;;;;;;;;7.82;100.00;100225.06;6337823;22;19914;-84
2022/04/30 03:44:02;;;;;;;;;;;;;;;7.82;100.00;100223.28;6309028;22;19911;-85
2022/04/30 03:46:27;;;;;;;;;;;;;;;7.86;100.00;100226.72;6337910;22;19915;-83
2022/04/30 03:48:56;;;;;;;;;;;;;;;7.86;100.00;100226.72;6338218;22;19921;-84
2022/04/30 03:51:22;;;;;;;;;;;;;;;7.85;100.00;100225.00;6310187;22;19910;-84
2022/04/30 03:53:47;;;;;;;;;;;;;;;7.88;100.00;100230.19;6337895;22;19953;-83
2022/04/30 03:56:13;;;;;;;;;;;;;;;7.52;100.00;100226.66;6310551;22;19910;-84
2022/04/30 03:58:38;;;;;;;;;;;;;;;6.95;100.00;100233.19;6336499;22;19917;-83
2022/04/30 04:01:04;;;;;;;;;;;;;;;6.67;100.00;100234.63;6338187;22;20234;-84
2022/04/30 04:03:29;;;;;;;;;;;;;;;6.58;100.00;100231.28;6337744;22;19989;-83
2022/04/30 04:05:54;;;;;;;;;;;;;;;6.50;100.00;100236.69;6309996;22;19991;-84
2022/04/30 04:08:20;;;;;;;;;;;;;;;6.33;100.00;100230.00;6337879;22;19918;-84
2022/04/30 04:10:46;;;;;;;;;;;;;;;6.25;100.00;100234.50;6337671;22;19980;-84
2022/04/30 04:18:39;;;;;;;;;;;;;;;6.39;100.00;100236.03;6337782;22;19921;-84
2022/04/30 04:21:04;;;;;;;;;;;;;;;6.25;100.00;100245.03;6310384;22;19915;-83
2022/04/30 04:25:58;;;;;;;;;;;;;;;6.16;100.00;100239.94;6338017;22;19917;-83
2022/04/30 04:26:15;;;;;;;;;;;;;;;6.12;100.00;100248.78;6337448;22;19915;-83
2022/04/30 04:28:40;;;;;;;;;;;;;;;6.09;100.00;100243.56;6336085;22;20287;-84
2022/04/30 04:31:05;;;;;;;;;;;;;;;5.99;100.00;100248.13;6337574;22;19946;-83
2022/04/30 04:33:30;;;;;;;;;;;;;;;5.93;100.00;100259.56;6337435;22;19914;-83
2022/04/30 04:35:56;;;;;;;;;;;;;;;5.85;100.00;100250.94;6337611;22;19911;-84
2022/04/30 04:38:21;;;;;;;;;;;;;;;5.92;100.00;100259.59;6337190;22;20314;-84
2022/04/30 04:40:46;;;;;;;;;;;;;;;5.71;100.00;100255.53;6337369;22;20382;-85
2022/04/30 04:43:11;;;;;;;;;;;;;;;5.74;100.00;100258.13;6336006;22;19922;-85
2022/04/30 04:45:37;;;;;;;;;;;;;;;5.73;100.00;100261.69;6309797;22;19917;-85
2022/04/30 04:48:02;;;;;;;;;;;;;;;5.65;100.00;100269.66;6337414;22;19993;-85
2022/04/30 04:50:28;;;;;;;;;;;;;;;5.63;100.00;100268.81;6337319;22;19911;-84
2022/04/30 07:41:36;;;;;;;;;;;;;;;4.53;90.55;100327.94;6335876;22;20009;-85
2022/04/30 07:44:01;;;;;;;;;;;;;;;4.59;90.65;100329.63;6326421;22;20310;-84
2022/04/30 07:46:27;;;;;;;;;;;;;;;4.64;90.76;100334.81;6306345;22;19922;-84
2022/04/30 07:48:52;;;;;;;;;;;;;;;4.67;90.62;100333.03;6306392;22;19918;-85
2022/04/30 07:51:23;;;;;;;;;;;;;;;4.61;90.67;100334.84;6304383;22;20001;-85
2022/04/30 07:53:48;;;;;;;;;;;;;;;4.61;90.85;100345.34;6306633;22;20246;-84
2022/04/30 07:56:14;;;;;;;;;;;;;;;4.66;90.77;100344.44;6304741;22;19922;-85
2022/04/30 07:58:39;;;;;;;;;;;;;;;4.67;90.65;100332.19;6306634;22;19911;-85
2022/04/30 08:01:04;;;;;;;;;;;;;;;4.57;90.47;100333.16;6306432;22;19914;-85
2022/04/30 08:03:32;;;;;;;;;;;;;;;4.62;90.47;100340.09;6306519;22;19954;-85
2022/04/30 08:05:57;;;;;;;;;;;;;;;4.63;90.47;100335.72;6306571;22;19941;-86
2022/04/30 08:08:22;;;;;;;;;;;;;;;4.58;90.23;100334.88;6305180;22;19910;-85
2022/04/30 08:10:47;;;;;;;;;;;;;;;4.62;90.46;100334.84;6305030;22;19915;-86
2022/04/30 08:13:13;;;;;;;;;;;;;;;4.60;90.25;100334.00;6306418;22;19950;-85
2022/04/30 08:15:43;;;;;;;;;;;;;;;4.59;90.12;100339.25;6306494;22;20327;-85
2022/04/30 08:18:08;;;;;;;;;;;;;;;4.48;90.60;100340.25;6306358;22;19911;-85
2022/04/30 08:20:34;;;;;;;;;;;;;;;4.62;90.46;100339.22;6306496;22;19907;-85
2022/04/30 08:22:59;;;;;;;;;;;;;;;4.68;90.33;100341.81;6306347;22;19917;-85
2022/04/30 08:25:24;;;;;;;;;;;;;;;4.54;90.32;100334.91;6306690;22;19907;-86
2022/04/30 08:27:49;;;;;;;;;;;;;;;4.48;90.44;100340.25;6304612;22;20230;-85
2022/04/30 08:30:15;;;;;;;;;;;;;;;4.54;90.21;100340.16;6306340;22;19922;-85
2022/04/30 08:32:40;;;;;;;;;;;;;;;4.49;90.41;100341.09;6306414;22;19914;-85
2022/04/30 08:35:06;;;;;;;;;;;;;;;4.46;90.22;100342.00;6306309;22;19957;-85
2022/04/30 08:37:31;;;;;;;;;;;;;;;4.47;90.24;100337.63;6306210;22;19908;-84
2022/04/30 08:39:56;;;;;;;;;;;;;;;4.53;90.07;100345.41;6304635;22;19915;-84
2022/04/30 08:42:25;;;;;;;;;;;;;;;4.30;89.89;100332.50;6311070;22;19914;-85
2022/04/30 08:44:50;;;;;;;;;;;;;;;4.31;90.31;100337.75;6337600;22;19971;-84
2022/04/30 08:47:16;;;;;;;;;;;;;;;4.34;90.51;100335.09;6309675;22;19919;-85
2022/04/30 08:49:42;;;;;;;;;;;;;;;4.42;90.62;100339.41;6337572;22;19933;-85
2022/04/30 08:52:11;;;;;;;;;;;;;;;4.33;90.14;100343.84;6337429;22;19906;-86
2022/04/30 08:54:37;;;;;;;;;;;;;;;4.30;90.21;100336.00;6338210;22;19930;-85
2022/04/30 08:57:02;;;;;;;;;;;;;;;4.39;90.21;100339.44;6310057;22;20329;-85
2022/04/30 08:59:29;;;;;;;;;;;;;;;4.31;90.04;100339.53;6339281;22;19911;-85
2022/04/30 09:01:57;;;;;;;;;;;;;;;4.27;90.35;100343.91;6312061;22;19914;-85
2022/04/30 09:04:23;;;;;;;;;;;;;;;4.30;90.36;100332.50;6311919;22;19926;-86
2022/04/30 09:06:50;;;;;;;;;;;;;;;4.38;90.38;100333.31;6339219;22;19914;-84
2022/04/30 09:09:28;;;;;;;;;;;;;;;4.34;90.14;100328.97;6339098;22;19918;-85
2022/04/30 09:11:56;;;;;;;;;;;;;;;4.36;90.34;100335.94;6337474;22;19922;-85
2022/04/30 09:14:26;;;;;;;;;;;;;;;4.49;90.35;100327.97;6339098;22;19941;-84
2022/04/30 09:17:05;;;;;;;;;;;;;;;4.46;89.74;100326.25;6339219;22;20360;-84
2022/04/30 09:19:44;;;;;;;;;;;;;;;4.39;89.86;100329.81;6339176;22;19914;-86
2022/04/30 09:22:10;;;;;;;;;;;;;;;4.29;89.75;100328.16;6311521;22;20268;-87
2022/04/30 09:24:48;;;;;;;;;;;;;;;4.30;89.79;100324.66;6339577;22;19917;-87
2022/04/30 09:27:14;;;;;;;;;;;;;;;4.32;89.76;100322.88;6337264;22;19918;-85
2022/04/30 09:29:39;;;;;;;;;;;;;;;4.32;89.50;100328.13;6311730;22;20322;-86
2022/04/30 09:32:05;;;;;;;;;;;;;;;4.19;89.73;100328.22;6311724;22;19959;-86
2022/04/30 09:37:43;;;;;;;;;;;;;;;4.24;89.67;100324.69;6339088;22;20040;-87
2022/04/30 09:40:14;;;;;;;;;;;;;;;4.23;90.22;100322.94;6338924;22;19918;-85
2022/04/30 09:42:40;;;;;;;;;;;;;;;4.26;90.02;100322.91;6337603;22;19915;-85
2022/04/30 09:45:06;;;;;;;;;;;;;;;4.32;90.09;100317.63;6311295;22;19918;-86
2022/04/30 09:47:33;;;;;;;;;;;;;;;4.20;89.90;100323.84;6311655;22;19910;-86
2022/04/30 09:55:29;;;;;;;;;;;;;;;4.30;89.81;100322.03;6338695;22;19917;-85
2022/04/30 09:57:55;;;;;;;;;;;;;;;4.22;89.82;100316.84;6337181;22;19961;-86
2022/04/30 10:00:20;;;;;;;;;;;;;;;4.23;89.86;100317.69;6311046;22;19918;-85
2022/04/30 10:02:46;;;;;;;;;;;;;;;4.29;89.65;100310.66;6338694;22;19967;-86
2022/04/30 10:05:12;;;;;;;;;;;;;;;4.22;89.72;100308.97;6338525;22;20223;-85
2022/04/30 10:07:38;;;;;;;;;;;;;;;4.24;89.72;100308.97;6338295;22;19922;-85
2022/04/30 10:10:16;;;;;;;;;;;;;;;4.24;89.89;100304.56;6338619;22;19918;-85
2022/04/30 10:13:01;;;;;;;;;;;;;;;4.28;89.82;100315.94;6336970;22;19968;-85
2022/04/30 10:15:45;;;;;;;;;;;;;;;4.31;89.55;100315.91;6338378;22;19924;-85
2022/04/30 10:18:10;;;;;;;;;;;;;;;4.25;89.57;100311.56;6311019;22;19960;-85
2022/04/30 10:20:35;;;;;;;;;;;;;;;4.22;89.64;100314.22;6285530;22;20318;-85
2022/04/30 10:23:02;;;;;;;;;;;;;;;4.25;89.53;100315.97;6310882;22;20004;-85
2022/04/30 10:25:40;;;;;;;;;;;;;;;4.32;89.33;100315.88;6338549;22;19911;-85
2022/04/30 10:28:14;;;;;;;;;;;;;;;4.26;89.39;100320.28;6338626;22;19937;-85
2022/04/30 10:30:40;;;;;;;;;;;;;;;4.29;89.22;100318.53;6338549;22;19941;-85
2022/04/30 10:33:07;;;;;;;;;;;;;;;4.21;89.47;100322.09;6310735;22;19919;-86
2022/04/30 10:35:34;;;;;;;;;;;;;;;4.30;89.21;100315.00;6310681;22;19910;-86
2022/04/30 10:38:08;;;;;;;;;;;;;;;4.27;88.99;100317.66;6338167;22;20014;-85
2022/04/30 10:40:45;;;;;;;;;;;;;;;4.32;88.97;100312.38;6338214;22;19910;-85
2022/04/30 10:43:37;;;;;;;;;;;;;;;4.29;88.93;100313.28;6337915;22;20298;-85
2022/04/30 10:46:03;;;;;;;;;;;;;;;4.26;88.90;100310.69;6338835;22;20330;-85
2022/04/30 10:48:29;;;;;;;;;;;;;;;4.25;88.92;100310.72;6338168;22;19918;-86
2022/04/30 10:51:04;;;;;;;;;;;;;;;4.21;88.98;100304.59;6310716;22;19914;-85
2022/04/30 10:53:30;;;;;;;;;;;;;;;4.23;89.08;100307.19;6338106;22;19917;-86
2022/04/30 10:55:55;;;;;;;;;;;;;;;4.20;88.93;100297.63;6336787;22;20346;-85
2022/04/30 10:58:24;;;;;;;;;;;;;;;4.21;88.86;100299.34;6338162;22;19910;-85
2022/04/30 11:00:49;;;;;;;;;;;;;;;4.24;88.95;100301.09;6338363;22;20288;-87
2022/04/30 11:03:15;;;;;;;;;;;;;;;4.31;88.90;100295.78;6338286;22;19938;-85
2022/04/30 11:05:40;;;;;;;;;;;;;;;4.22;88.77;100300.25;6338195;22;19917;-85
2022/04/30 11:08:06;;;;;;;;;;;;;;;4.16;88.88;100302.03;6338030;22;20257;-85
2022/04/30 11:10:32;;;;;;;;;;;;;;;4.12;88.82;100296.81;6310755;22;19965;-85
2022/04/30 11:13:06;;;;;;;;;;;;;;;4.07;88.92;100286.38;6336530;22;19914;-86
2022/04/30 11:15:32;;;;;;;;;;;;;;;4.14;88.93;100287.19;6338056;22;19917;-85
2022/04/30 11:17:58;;;;;;;;;;;;;;;4.22;89.07;100284.50;6310070;22;19986;-84
2022/04/30 11:20:24;;;;;;;;;;;;;;;4.25;88.71;100281.84;6338025;22;19921;-86
2022/04/30 11:22:57;;;;;;;;;;;;;;;4.17;88.75;100276.66;6337958;22;19942;-86
2022/04/30 11:25:31;;;;;;;;;;;;;;;4.14;88.64;100271.44;6310205;22;19995;-85
2022/04/30 11:27:57;;;;;;;;;;;;;;;4.18;88.89;100271.41;6336323;22;19914;-86
2022/04/30 11:30:22;;;;;;;;;;;;;;;4.17;88.85;100274.03;6338034;22;19911;-86
2022/04/30 11:32:48;;;;;;;;;;;;;;;4.11;88.97;100272.34;6337461;22;19914;-86
2022/04/30 11:35:16;;;;;;;;;;;;;;;4.13;89.20;100265.34;6310117;22;19926;-87
2022/04/30 11:37:42;;;;;;;;;;;;;;;4.06;88.89;100271.50;6309523;22;19997;-87
2022/04/30 11:40:08;;;;;;;;;;;;;;;4.10;88.94;100265.38;6309899;22;20627;-86
2022/04/30 11:42:34;;;;;;;;;;;;;;;4.14;88.79;100264.44;6303317;22;19918;-86
2022/04/30 11:44:59;;;;;;;;;;;;;;;4.27;88.35;100266.97;6306324;22;19917;-87
2022/04/30 11:47:24;;;;;;;;;;;;;;;4.21;88.59;100264.38;6305607;22;20036;-87
2022/04/30 11:49:49;;;;;;;;;;;;;;;4.24;88.44;100264.34;6306415;22;19917;-86
2022/04/30 11:52:15;;;;;;;;;;;;;;;4.26;88.52;100262.59;6304268;22;19942;-87
2022/04/30 11:54:41;;;;;;;;;;;;;;;4.26;88.31;100259.97;6303170;22;19914;-87
2022/04/30 11:57:07;;;;;;;;;;;;;;;4.18;88.23;100257.44;6303244;22;20281;-87
2022/04/30 11:59:37;;;;;;;;;;;;;;;4.22;88.28;100261.75;6304840;22;19910;-86
2022/04/30 12:02:03;;;;;;;;;;;;;;;4.19;88.25;100260.00;6304868;22;19914;-86
2022/04/30 12:04:34;;;;;;;;;;;;;;;4.14;88.14;100267.06;6303945;22;19907;-86
2022/04/30 12:07:00;;;;;;;;;;;;;;;4.07;88.04;100259.25;6305712;22;19911;-86
2022/04/30 12:09:30;;;;;;;;;;;;;;;4.10;87.99;100261.84;6306478;22;19910;-86
2022/04/30 12:11:56;;;;;;;;;;;;;;;4.16;88.11;100264.44;6303573;22;19934;-86
2022/04/30 12:14:21;;;;;;;;;;;;;;;4.12;88.00;100260.09;6304850;22;20379;-86
2022/04/30 12:16:47;;;;;;;;;;;;;;;4.12;87.98;100258.34;6304949;22;19954;-86
2022/04/30 12:25:06;;;;;;;;;;;;;;;4.09;87.74;100255.75;6306559;22;19922;-88
2022/04/30 12:27:32;;;;;;;;;;;;;;;4.10;87.67;100246.13;6304629;22;19910;-86
2022/04/30 12:30:02;;;;;;;;;;;;;;;4.11;87.67;100253.13;6308307;22;19942;-87
2022/04/30 12:32:27;;;;;;;;;;;;;;;4.16;88.11;100246.97;6306848;22;19919;-87
2022/04/30 12:34:53;;;;;;;;;;;;;;;4.16;87.84;100248.69;6306981;22;19915;-87
2022/04/30 12:37:28;;;;;;;;;;;;;;;4.14;87.80;100246.06;6308395;22;19957;-87
2022/04/30 12:39:53;;;;;;;;;;;;;;;4.12;87.51;100247.84;6308270;22;19911;-87
2022/04/30 12:42:19;;;;;;;;;;;;;;;4.20;87.65;100247.78;6312264;22;19921;-86
2022/04/30 12:44:45;;;;;;;;;;;;;;;4.16;87.51;100248.69;6339610;22;19915;-87
2022/04/30 12:47:10;;;;;;;;;;;;;;;4.15;87.21;100242.59;6339473;22;20333;-87
2022/04/30 12:49:35;;;;;;;;;;;;;;;4.24;87.95;100246.00;6339818;22;19919;-86
2022/04/30 12:52:00;;;;;;;;;;;;;;;4.34;88.86;100238.03;6339812;22;19910;-86
2022/04/30 12:54:26;;;;;;;;;;;;;;;4.42;89.68;100240.56;6339406;22;20272;-86
2022/04/30 12:56:51;;;;;;;;;;;;;;;4.58;91.32;100232.53;6310177;22;19942;-86
2022/04/30 12:59:16;;;;;;;;;;;;;;;4.82;93.71;100228.72;6339409;22;19918;-86
2022/04/30 13:01:42;;;;;;;;;;;;;;;5.05;96.73;100224.06;6339299;22;19919;-86
2022/04/30 13:04:07;;;;;;;;;;;;;;;5.27;100.00;100222.00;6311721;22;19915;-86
2022/04/30 13:06:32;;;;;;;;;;;;;;;5.49;100.00;100221.72;6312106;22;19937;-86
2022/04/30 13:14:27;;;;;;;;;;;;;;;5.84;100.00;100209.78;6339247;22;19917;-87
2022/04/30 13:16:53;;;;;;;;;;;;;;;5.95;100.00;100206.94;6339113;22;19910;-86
2022/04/30 13:19:18;;;;;;;;;;;;;;;6.05;100.00;100207.66;6311857;22;19915;-87
2022/04/30 13:21:46;;;;;;;;;;;;;;;6.14;100.00;100212.78;6338966;22;20271;-86
2022/04/30 13:24:12;;;;;;;;;;;;;;;6.27;100.00;100200.25;6339118;22;19915;-87
2022/04/30 13:26:37;;;;;;;;;;;;;;;6.31;100.00;100194.06;6310129;22;19918;-87
2022/04/30 13:29:02;;;;;;;;;;;;;;;6.38;100.00;100200.06;6339066;22;19917;-86
2022/04/30 13:31:28;;;;;;;;;;;;;;;6.41;100.00;100200.00;6311430;22;19914;-87
2022/04/30 13:33:53;;;;;;;;;;;;;;;6.47;100.00;100206.03;6338912;22;19918;-87
2022/04/30 13:36:20;;;;;;;;;;;;;;;6.52;100.00;100200.66;6338809;22;19950;-87
2022/04/30 13:38:45;;;;;;;;;;;;;;;6.64;100.00;100200.44;6338857;22;19914;-87
2022/04/30 13:41:10;;;;;;;;;;;;;;;6.69;100.00;100201.19;6337092;22;20242;-86
2022/04/30 13:43:36;;;;;;;;;;;;;;;6.70;100.00;100200.31;6311036;22;20242;-88
2022/04/30 13:46:01;;;;;;;;;;;;;;;6.71;100.00;100194.13;6339050;22;20352;-86
2022/04/30 13:48:26;;;;;;;;;;;;;;;6.78;100.00;100194.00;6338920;22;19927;-87
2022/04/30 13:50:52;;;;;;;;;;;;;;;6.80;100.00;100201.00;6338690;22;19911;-87
2022/04/30 13:53:18;;;;;;;;;;;;;;;6.83;100.00;100186.88;6339329;22;19921;-87
2022/04/30 13:55:43;;;;;;;;;;;;;;;6.87;100.00;100185.91;6309788;22;20303;-87
2022/04/30 13:58:08;;;;;;;;;;;;;;;6.87;100.00;100185.91;6338940;22;19918;-88
2022/04/30 14:00:35;;;;;;;;;;;;;;;6.94;100.00;100182.25;6311310;22;19960;-87
2022/04/30 14:03:01;;;;;;;;;;;;;;;7.00;100.00;100184.75;6339161;22;19918;-88
2022/04/30 14:05:27;;;;;;;;;;;;;;;7.06;100.00;100179.34;6338629;22;20289;-87
2022/04/30 14:07:52;;;;;;;;;;;;;;;7.14;100.00;100178.31;6338637;22;19921;-88
2022/04/30 14:10:20;;;;;;;;;;;;;;;7.09;100.00;100181.91;6338762;22;19911;-87
2022/04/30 14:12:45;;;;;;;;;;;;;;;7.12;100.00;100180.13;6337082;22;19914;-87
2022/04/30 14:15:11;;;;;;;;;;;;;;;7.12;100.00;100186.25;6338776;22;20420;-86
2022/04/30 14:20:20;;;;;;;;;;;;;;;7.30;100.00;100179.69;6338676;22;19929;-87
2022/04/30 14:22:45;;;;;;;;;;;;;;;7.31;100.00;100173.53;6338568;22;20327;-86
2022/04/30 14:25:13;;;;;;;;;;;;;;;7.24;100.00;100171.91;6338645;22;19977;-88
2022/04/30 14:27:38;;;;;;;;;;;;;;;6.58;100.00;100174.22;6337078;22;19914;-88
2022/04/30 14:30:08;;;;;;;;;;;;;;;6.20;100.00;100172.34;6311015;22;19915;-87
2022/04/30 14:32:34;;;;;;;;;;;;;;;6.15;100.00;100169.78;6338465;22;19926;-88
2022/04/30 14:35:00;;;;;;;;;;;;;;;6.11;100.00;100169.00;6311320;22;19910;-88
2022/04/30 14:37:29;;;;;;;;;;;;;;;5.96;100.00;100166.59;6338779;22;19910;-87
2022/04/30 14:39:54;;;;;;;;;;;;;;;5.89;100.00;100170.22;6338506;22;20330;-87
2022/04/30 14:42:21;;;;;;;;;;;;;;;5.77;100.00;100166.91;6336727;22;19920;-88
2022/04/30 14:44:46;;;;;;;;;;;;;;;5.77;100.00;100168.69;6338319;22;20027;-87
2022/04/30 14:47:11;;;;;;;;;;;;;;;5.72;99.27;100167.91;6338207;22;19910;-88
2022/04/30 14:49:36;;;;;;;;;;;;;;;5.64;98.76;100163.63;6338168;22;19918;-87
2022/04/30 14:52:02;;;;;;;;;;;;;;;5.50;98.07;100165.59;6337897;22;19914;-88
2022/04/30 14:54:28;;;;;;;;;;;;;;;5.41;97.98;100156.13;6338309;22;19915;-88
2022/04/30 14:56:53;;;;;;;;;;;;;;;5.37;97.44;100153.56;6336575;22;20345;-87
2022/04/30 14:59:18;;;;;;;;;;;;;;;5.41;97.18;100161.38;6311009;22;19910;-87
2022/04/30 15:01:45;;;;;;;;;;;;;;;5.40;96.52;100156.13;6338057;22;19910;-87
2022/04/30 15:04:10;;;;;;;;;;;;;;;5.37;95.79;100153.56;6338227;22;19911;-88
2022/04/30 15:06:35;;;;;;;;;;;;;;;5.21;95.47;100151.16;6310559;22;20005;-87
2022/04/30 15:09:01;;;;;;;;;;;;;;;5.27;95.13;100151.06;6338020;22;20325;-88
2022/04/30 15:11:26;;;;;;;;;;;;;;;5.27;94.64;100151.06;6336662;22;19965;-88
2022/04/30 15:13:52;;;;;;;;;;;;;;;5.29;94.67;100151.03;6338483;22;19962;-88
2022/04/30 15:16:17;;;;;;;;;;;;;;;5.16;93.87;100154.75;6338267;22;19914;-87
2022/04/30 15:18:42;;;;;;;;;;;;;;;5.17;93.64;100152.13;6310798;22;19956;-88
2022/04/30 15:21:08;;;;;;;;;;;;;;;5.15;93.24;100153.00;6338293;22;20349;-88
2022/04/30 15:23:33;;;;;;;;;;;;;;;5.18;92.74;100147.72;6338152;22;20246;-88
2022/04/30 15:25:58;;;;;;;;;;;;;;;5.12;92.38;100153.91;6336986;22;19907;-88
2022/04/30 15:28:24;;;;;;;;;;;;;;;5.13;91.99;100144.28;6338107;22;19950;-87
2022/04/30 15:30:50;;;;;;;;;;;;;;;5.06;91.32;100147.00;6310293;22;19911;-87
2022/04/30 15:33:15;;;;;;;;;;;;;;;5.06;91.02;100143.53;6310268;22;19911;-88
2022/04/30 15:35:40;;;;;;;;;;;;;;;5.02;90.25;100152.31;6338090;22;20039;-88
2022/04/30 15:38:06;;;;;;;;;;;;;;;5.03;90.01;100144.44;6338089;22;19914;-87
2022/04/30 15:40:31;;;;;;;;;;;;;;;5.06;89.43;100152.25;6310564;22;19914;-87
2022/04/30 15:42:57;;;;;;;;;;;;;;;4.94;89.16;100148.94;6336447;22;19915;-88
2022/04/30 15:45:23;;;;;;;;;;;;;;;4.89;89.04;100152.50;6338007;22;20401;-87
2022/04/30 15:56:03;;;;;;;;;;;;;;;4.88;88.11;100147.25;6336210;22;20240;-88
2022/04/30 15:58:29;;;;;;;;;;;;;;;4.93;87.88;100142.84;6338006;22;19911;-87
2022/04/30 16:00:54;;;;;;;;;;;;;;;4.86;87.71;100142.03;6310365;22;19985;-87
2022/04/30 16:03:19;;;;;;;;;;;;;;;4.78;87.83;100145.66;6337738;22;19993;-88
2022/04/30 16:05:45;;;;;;;;;;;;;;;4.88;87.83;100140.28;6336482;22;19914;-87
2022/04/30 16:08:11;;;;;;;;;;;;;;;4.76;87.99;100139.56;6337661;22;19915;-87
2022/04/30 16:10:36;;;;;;;;;;;;;;;4.90;87.98;100137.63;6309595;22;19914;-87
2022/04/30 16:13:01;;;;;;;;;;;;;;;4.87;87.89;100138.53;6335821;22;19910;-87
2022/04/30 16:15:27;;;;;;;;;;;;;;;4.75;87.49;100136.06;6337240;22;20364;-88
2022/04/30 16:17:52;;;;;;;;;;;;;;;4.71;87.66;100134.38;6308432;22;20303;-86
2022/04/30 16:20:19;;;;;;;;;;;;;;;4.72;87.57;100133.47;6336423;22;20035;-87
2022/04/30 16:22:44;;;;;;;;;;;;;;;4.67;87.67;100136.16;6333786;22;20051;-86
2022/04/30 16:25:11;;;;;;;;;;;;;;;4.76;87.61;100135.19;6308334;22;19934;-86
2022/04/30 16:27:36;;;;;;;;;;;;;;;4.78;87.55;100130.75;6335570;22;19922;-87
2022/04/30 16:30:05;;;;;;;;;;;;;;;4.87;87.28;100137.66;6308815;22;19915;-87
2022/04/30 16:32:31;;;;;;;;;;;;;;;4.82;86.92;100135.09;6309684;22;19907;-87
2022/04/30 16:34:56;;;;;;;;;;;;;;;4.77;86.97;100133.41;6337414;22;19949;-87
2022/04/30 16:37:21;;;;;;;;;;;;;;;4.76;86.86;100127.31;6310271;22;20446;-87
2022/04/30 16:39:47;;;;;;;;;;;;;;;4.75;86.87;100130.81;6300010;22;20327;-87
2022/04/30 16:42:13;;;;;;;;;;;;;;;4.79;86.77;100143.00;6308213;22;19925;-87
2022/04/30 16:44:39;;;;;;;;;;;;;;;4.76;86.70;100137.81;6310321;22;19910;-87
2022/04/30 16:47:04;;;;;;;;;;;;;;;4.70;86.58;100137.88;6337541;22;20306;-87
2022/04/30 16:49:30;;;;;;;;;;;;;;;4.66;86.70;100136.16;6310212;22;20306;-87
2022/04/30 16:57:23;;;;;;;;;;;;;;;4.62;86.38;100135.34;6336209;22;20000;-87
2022/04/30 16:59:49;;;;;;;;;;;;;;;4.47;86.45;100133.78;6337853;22;20311;-87
2022/04/30 17:02:14;;;;;;;;;;;;;;;4.54;86.95;100140.69;6337463;22;20008;-87
2022/04/30 17:04:39;;;;;;;;;;;;;;;4.57;86.71;100133.69;6337538;22;19933;-87
2022/04/30 17:07:06;;;;;;;;;;;;;;;4.61;86.46;100132.75;6337292;22;19921;-88
2022/04/30 17:09:32;;;;;;;;;;;;;;;4.52;86.44;100137.22;6337482;22;19910;-88
2022/04/30 17:11:57;;;;;;;;;;;;;;;4.62;86.46;100130.09;6336167;22;19917;-87
2022/04/30 17:14:22;;;;;;;;;;;;;;;4.62;86.30;100131.88;6337523;22;19911;-87
2022/04/30 17:16:48;;;;;;;;;;;;;;;4.57;86.04;100133.69;6338768;22;19989;-87
2022/04/30 17:19:14;;;;;;;;;;;;;;;4.54;86.23;100132.81;6339267;22;20023;-87
2022/04/30 17:21:39;;;;;;;;;;;;;;;4.45;86.19;100139.94;6285728;22;20204;-88
2022/04/30 17:24:04;;;;;;;;;;;;;;;4.38;86.20;100136.53;6312015;22;20230;-88
2022/04/30 17:26:30;;;;;;;;;;;;;;;4.54;86.29;100131.97;6337419;22;19910;-87
2022/04/30 17:28:55;;;;;;;;;;;;;;;4.46;86.29;100133.81;6339020;22;19911;-87
2022/04/30 17:39:33;;;;;;;;;;;;;;;4.36;86.11;100136.53;6339077;22;19918;-86
2022/04/30 17:41:59;;;;;;;;;;;;;;;4.38;86.16;100141.78;6335569;22;19910;-86
2022/04/30 17:44:25;;;;;;;;;;;;;;;4.41;86.04;100148.75;6311345;22;19918;-88
2022/04/30 17:46:50;;;;;;;;;;;;;;;4.42;86.01;100146.13;6338787;22;19936;-87
2022/04/30 17:49:16;;;;;;;;;;;;;;;4.36;86.03;100156.69;6338879;22;19918;-87
2022/04/30 17:51:42;;;;;;;;;;;;;;;4.42;85.78;100145.22;6339084;22;19910;-87
2022/04/30 17:54:08;;;;;;;;;;;;;;;4.45;85.73;100151.31;6311387;22;19976;-87
2022/04/30 17:56:33;;;;;;;;;;;;;;;4.42;85.71;100151.34;6337540;22;19985;-87
2022/04/30 17:58:59;;;;;;;;;;;;;;;4.38;85.75;100157.53;6338633;22;20334;-86
2022/04/30 18:01:26;;;;;;;;;;;;;;;4.42;85.56;100156.59;6338735;22;19914;-88
2022/04/30 18:03:51;;;;;;;;;;;;;;;4.49;85.56;100162.66;6338618;22;19959;-87
2022/04/30 18:06:17;;;;;;;;;;;;;;;4.36;85.60;100164.53;6339219;22;20310;-91
2022/04/30 18:08:42;;;;;;;;;;;;;;;4.40;85.63;100166.22;6338322;22;19921;-88
2022/04/30 18:11:07;;;;;;;;;;;;;;;4.37;85.42;100174.13;6309776;22;19910;-90
2022/04/30 18:13:34;;;;;;;;;;;;;;;4.40;85.63;100176.72;6340234;22;19914;-90
2022/04/30 18:15:59;;;;;;;;;;;;;;;4.42;85.48;100164.47;6340645;22;19914;-87
2022/04/30 18:18:25;;;;;;;;;;;;;;;4.40;85.12;100170.63;6311872;22;19964;-91
2022/04/30 18:20:51;;;;;;;;;;;;;;;4.37;85.19;100176.75;6312433;22;20016;-88
2022/04/30 18:23:16;;;;;;;;;;;;;;;4.29;85.34;100168.09;6339371;22;20008;-87
2022/04/30 18:25:42;;;;;;;;;;;;;;;4.25;85.44;100176.91;6310624;22;19910;-87
2022/04/30 18:28:07;;;;;;;;;;;;;;;4.25;85.41;100175.16;6327397;22;20283;-92
2022/04/30 18:30:35;;;;;;;;;;;;;;;4.20;85.40;100182.22;6313596;22;20274;-86
2022/04/30 18:33:00;;;;;;;;;;;;;;;4.14;85.76;100180.50;6314038;22;19975;-87
2022/04/30 18:35:26;;;;;;;;;;;;;;;4.13;85.60;100176.16;6311705;22;19915;-90
2022/04/30 18:37:52;;;;;;;;;;;;;;;4.66;85.89;100186.03;6301936;22;19921;-87
2022/04/30 18:40:17;;;;;;;;;;;;;;;4.36;86.08;100190.78;6331135;22;19917;-88
2022/04/30 18:42:43;;;;;;;;;;;;;;;4.16;86.69;100186.63;6309196;22;19918;-89
2022/04/30 18:45:09;;;;;;;;;;;;;;;4.18;86.97;100197.09;6338499;22;19932;-90
2022/04/30 18:47:34;;;;;;;;;;;;;;;4.25;87.06;100209.25;6311206;22;19911;-88
2022/04/30 18:49:59;;;;;;;;;;;;;;;4.17;86.73;100198.84;6300772;22;20285;-88
2022/04/30 18:52:24;;;;;;;;;;;;;;;4.17;86.66;100198.84;6310449;22;19910;-88
2022/04/30 19:03:03;;;;;;;;;;;;;;;4.07;86.95;100205.06;6338378;22;19917;-87
2022/04/30 19:05:29;;;;;;;;;;;;;;;4.05;86.72;100204.19;6338299;22;19910;-88
2022/04/30 19:07:54;;;;;;;;;;;;;;;4.05;87.03;100209.44;6338170;22;19921;-87
2022/04/30 19:10:19;;;;;;;;;;;;;;;3.99;86.67;100214.78;6300019;22;19911;-89
2022/04/30 19:12:46;;;;;;;;;;;;;;;3.94;86.90;100217.44;6309267;22;19915;-87
2022/04/30 19:15:11;;;;;;;;;;;;;;;3.94;87.29;100222.66;6310174;22;20311;-89
2022/04/30 19:17:37;;;;;;;;;;;;;;;3.93;87.51;100220.91;6310870;22;19959;-88
2022/04/30 19:20:03;;;;;;;;;;;;;;;3.94;87.65;100222.66;6310543;22;19914;-87